Terminal Aerodrome Forecast
Issued by NWS

Home | Current Version | Previous Version | Graphics & Text | Print | Product List | Glossary On
Versions: 1 2 3 4 5 6 7 8 9 10 11 12 13 14 15 16 17 18 19
000
FTUS43 KUNR 161500 AAA
TAFGCC
TAF AMD
KGCC 161538Z 1616/1712 34015G22KT P6SM BKN030
     FM161800 34015KT P6SM BKN040
     FM170400 19012KT P6SM BKN070=

USA.gov is the U.S. government's official web portal to all federal, state and local government web resources and services.